Time;durP1;ratioP1;P1;durP2;ratioP2;P2;SDS_P1;SDS_P2;PMS_P1;PMS_P2;Temp;Humidity;BMP_temperature;BMP_pressure;BME280_temperature;BME280_humidity;BME280_pressure;Samples;Min_cycle;Max_cycle;Signal;HPM_P1;HPM_P2
2021/05/14 00:00:26;;;;;;;3.75;2.92;;;;;;;8.28;79.38;98749.72;5065060;28;20028;-70
2021/05/14 00:02:52;;;;;;;7.85;2.70;;;;;;;8.27;79.51;98748.88;5072741;28;20408;-70
2021/05/14 00:05:18;;;;;;;5.75;3.85;;;;;;;8.22;79.94;98748.28;5072934;28;20488;-69
2021/05/14 00:07:44;;;;;;;4.25;3.33;;;;;;;8.15;80.26;98750.41;5073156;28;20051;-69
2021/05/14 00:10:11;;;;;;;4.18;3.50;;;;;;;8.13;80.50;98741.75;5073266;28;20449;-69
2021/05/14 00:12:37;;;;;;;5.28;3.55;;;;;;;8.11;80.15;98742.78;5072606;28;20043;-70
2021/05/14 00:15:03;;;;;;;3.70;3.22;;;;;;;8.11;80.20;98743.63;5055138;28;20107;-69
2021/05/14 00:17:28;;;;;;;4.28;3.00;;;;;;;8.10;79.92;98743.72;5072864;28;20035;-70
2021/05/14 00:19:54;;;;;;;3.72;3.22;;;;;;;8.11;79.58;98745.41;5052063;28;20054;-69
2021/05/14 00:22:19;;;;;;;4.50;3.25;;;;;;;8.08;79.90;98743.78;5051525;28;20032;-70
2021/05/14 00:24:46;;;;;;;6.85;3.42;;;;;;;8.05;80.10;98748.34;5052613;28;20029;-69
2021/05/14 00:27:11;;;;;;;4.90;3.63;;;;;;;8.01;79.70;98746.84;5052154;28;20489;-70
2021/05/14 00:29:37;;;;;;;5.18;3.25;;;;;;;7.99;80.02;98744.28;5056441;28;20082;-69
2021/05/14 00:32:02;;;;;;;3.72;3.33;;;;;;;7.96;79.80;98744.47;5072617;28;20039;-69
2021/05/14 00:34:28;;;;;;;6.20;3.60;;;;;;;7.88;80.25;98742.28;5072850;28;20071;-70
2021/05/14 00:36:53;;;;;;;6.97;3.58;;;;;;;7.84;79.91;98742.53;5072311;28;20032;-70
2021/05/14 00:39:18;;;;;;;4.03;3.35;;;;;;;7.80;80.23;98747.13;5072735;28;20503;-70
2021/05/14 00:41:44;;;;;;;3.40;2.60;;;;;;;7.76;80.08;98742.94;5072258;28;20036;-71
2021/05/14 00:44:32;;;;;;;3.72;3.20;;;;;;;7.74;79.82;98740.41;5072040;28;20038;-71
2021/05/14 00:46:59;;;;;;;4.93;3.35;;;;;;;7.69;80.31;98742.44;5071801;28;20037;-70
2021/05/14 00:49:24;;;;;;;6.25;3.25;;;;;;;7.66;80.47;98741.75;5072456;28;20029;-70
2021/05/14 00:51:50;;;;;;;5.20;3.28;;;;;;;7.64;80.35;98738.38;5072249;28;20025;-70
2021/05/14 00:54:15;;;;;;;5.97;3.22;;;;;;;7.61;80.77;98739.38;5071887;28;20035;-70
2021/05/14 00:56:41;;;;;;;3.03;2.55;;;;;;;7.61;80.08;98733.28;5071796;28;20039;-71
2021/05/14 00:59:06;;;;;;;3.80;2.78;;;;;;;7.61;79.80;98728.88;5071948;28;20389;-70
2021/05/14 01:01:32;;;;;;;6.85;2.58;;;;;;;7.61;79.28;98730.69;5050845;28;20032;-70
2021/05/14 01:03:57;;;;;;;3.13;2.38;;;;;;;7.57;79.25;98726.50;5071651;28;20080;-70
2021/05/14 01:06:23;;;;;;;4.18;3.03;;;;;;;7.56;79.50;98724.84;5071177;28;20071;-70
2021/05/14 01:08:48;;;;;;;4.05;2.70;;;;;;;7.52;79.24;98719.72;5071865;28;20035;-70
2021/05/14 01:11:13;;;;;;;7.32;3.05;;;;;;;7.50;79.11;98718.97;5071778;28;20029;-70
2021/05/14 01:13:39;;;;;;;3.97;3.00;;;;;;;7.46;79.55;98714.00;5071945;28;20373;-70
2021/05/14 01:16:04;;;;;;;4.22;3.13;;;;;;;7.43;79.27;98714.13;5071474;28;20094;-70
2021/05/14 01:18:29;;;;;;;3.53;2.38;;;;;;;7.45;79.31;98722.75;5066508;28;20060;-69
2021/05/14 01:20:55;;;;;;;3.63;2.83;;;;;;;7.46;78.96;98725.31;5050969;28;20443;-69
2021/05/14 01:23:20;;;;;;;3.40;2.20;;;;;;;7.48;79.06;98726.09;5050496;28;20116;-70
2021/05/14 01:25:48;;;;;;;5.68;2.75;;;;;;;7.51;79.18;98723.28;5050836;28;20040;-69
2021/05/14 01:28:13;;;;;;;5.72;2.97;;;;;;;7.49;78.67;98730.38;5051046;28;20036;-69
2021/05/14 01:30:39;;;;;;;3.30;2.58;;;;;;;7.43;78.81;98720.25;5033221;28;20040;-71
2021/05/14 01:33:04;;;;;;;3.05;2.35;;;;;;;7.40;78.83;98725.63;5051102;28;20036;-69
2021/05/14 01:35:30;;;;;;;7.35;3.47;;;;;;;7.39;78.57;98725.72;5050618;28;20116;-69
2021/05/14 01:37:55;;;;;;;5.70;2.63;;;;;;;7.35;79.07;98726.81;5050944;28;20079;-69
2021/05/14 01:40:20;;;;;;;2.88;2.22;;;;;;;7.31;78.78;98726.16;5051166;28;20106;-68
2021/05/14 01:42:49;;;;;;;3.85;2.60;;;;;;;7.29;78.46;98728.84;5050707;28;20032;-69
2021/05/14 01:45:16;;;;;;;4.30;3.05;;;;;;;7.27;78.94;98721.97;5050543;28;20045;-68
2021/05/14 01:47:42;;;;;;;4.78;2.67;;;;;;;7.25;78.37;98739.56;5050767;28;20038;-70
2021/05/14 01:50:09;;;;;;;3.33;2.30;;;;;;;7.25;78.02;98731.69;5050902;28;20397;-70
2021/05/14 01:52:34;;;;;;;3.15;2.15;;;;;;;7.23;78.15;98731.75;5050641;28;20553;-70
2021/05/14 01:55:01;;;;;;;3.78;3.13;;;;;;;7.19;78.61;98727.63;5064968;28;20119;-69
2021/05/14 01:57:30;;;;;;;5.00;2.70;;;;;;;7.11;79.24;98724.53;5070770;28;20040;-69
2021/05/14 01:59:56;;;;;;;3.40;2.13;;;;;;;7.08;78.75;98720.31;5070187;28;20167;-71
2021/05/14 02:02:22;;;;;;;7.95;2.30;;;;;;;7.05;78.36;98723.09;5070604;28;20033;-70
2021/05/14 02:04:49;;;;;;;3.15;2.28;;;;;;;7.03;78.00;98726.72;5071147;28;20040;-70
2021/05/14 02:07:15;;;;;;;2.80;2.10;;;;;;;6.99;78.64;98725.19;5070285;28;20110;-69
2021/05/14 02:09:40;;;;;;;4.97;1.98;;;;;;;6.96;78.44;98727.97;5071016;28;20060;-70
2021/05/14 02:12:07;;;;;;;11.55;3.08;;;;;;;6.93;78.52;98720.25;5070757;28;20389;-70
2021/05/14 02:14:33;;;;;;;4.72;2.35;;;;;;;6.91;78.32;98716.88;5036207;28;20083;-69
2021/05/14 02:16:58;;;;;;;16.25;3.08;;;;;;;6.87;78.94;98730.13;5069884;28;20064;-70
2021/05/14 02:19:23;;;;;;;5.93;2.65;;;;;;;6.81;79.18;98724.34;5069852;28;20039;-70
2021/05/14 02:21:49;;;;;;;3.85;2.20;;;;;;;6.81;79.25;98726.97;5070946;28;20043;-70
2021/05/14 02:24:14;;;;;;;3.55;2.00;;;;;;;6.82;79.36;98723.44;5052327;28;20036;-70
2021/05/14 02:26:40;;;;;;;2.97;2.30;;;;;;;6.82;79.18;98726.06;5070203;28;20037;-71
2021/05/14 02:29:05;;;;;;;3.80;2.70;;;;;;;6.83;79.59;98725.13;5070527;28;20040;-70
2021/05/14 02:31:38;;;;;;;4.78;2.50;;;;;;;6.80;79.28;98718.28;5070450;28;20032;-71
2021/05/14 02:34:04;;;;;;;2.85;2.33;;;;;;;6.81;78.94;98719.94;5068871;28;20040;-71
2021/05/14 02:36:29;;;;;;;3.35;2.63;;;;;;;6.77;78.81;98718.44;5058420;28;20040;-70
2021/05/14 02:38:54;;;;;;;3.20;2.42;;;;;;;6.76;78.99;98708.88;5069915;28;20435;-70
2021/05/14 02:41:20;;;;;;;3.35;2.20;;;;;;;6.76;78.66;98718.50;5070359;28;20056;-68
2021/05/14 02:43:45;;;;;;;11.73;3.53;;;;;;;6.71;78.99;98710.03;5069603;28;20036;-69
2021/05/14 02:46:11;;;;;;;4.72;3.33;;;;;;;6.66;78.95;98705.03;5069828;28;20059;-68
2021/05/14 02:48:37;;;;;;;2.90;2.10;;;;;;;6.61;78.88;98705.25;5069841;28;20078;-69
2021/05/14 02:51:03;;;;;;;3.42;2.42;;;;;;;6.62;79.00;98711.34;5069954;28;20091;-70
2021/05/14 02:53:28;;;;;;;4.63;3.22;;;;;;;6.63;79.49;98708.66;5069864;28;20044;-69
2021/05/14 02:55:53;;;;;;;4.45;2.20;;;;;;;6.65;79.01;98719.91;5069649;28;20042;-70
2021/05/14 02:58:19;;;;;;;4.03;2.28;;;;;;;6.73;79.06;98718.66;5070342;28;20029;-70
2021/05/14 03:00:45;;;;;;;4.78;1.85;;;;;;;6.76;79.09;98713.25;5069681;28;20036;-69
2021/05/14 03:03:10;;;;;;;3.05;2.22;;;;;;;6.80;78.30;98715.66;5070111;28;20529;-68
2021/05/14 03:05:36;;;;;;;5.30;2.70;;;;;;;6.80;79.05;98709.56;5069599;28;20112;-69
2021/05/14 03:08:01;;;;;;;6.78;2.95;;;;;;;6.75;78.89;98714.22;5069713;28;20033;-69
2021/05/14 03:10:27;;;;;;;5.18;2.65;;;;;;;6.70;79.15;98708.34;5069702;28;20043;-69
2021/05/14 03:12:53;;;;;;;4.97;2.50;;;;;;;6.69;79.18;98711.88;5069648;28;20430;-68
2021/05/14 03:15:19;;;;;;;4.78;2.88;;;;;;;6.66;78.60;98710.25;5069471;28;20036;-69
2021/05/14 03:17:44;;;;;;;3.53;3.00;;;;;;;6.62;79.25;98706.97;5069594;28;20098;-69
2021/05/14 03:20:10;;;;;;;6.43;2.67;;;;;;;6.62;78.88;98706.97;5069683;28;20071;-71
2021/05/14 03:22:35;;;;;;;5.47;2.38;;;;;;;6.61;79.15;98714.88;5069421;28;20025;-68
2021/05/14 03:25:02;;;;;;;4.97;2.28;;;;;;;6.62;79.18;98713.94;5069317;28;20082;-68
2021/05/14 03:27:27;;;;;;;16.45;4.03;;;;;;;6.61;78.79;98717.50;5068904;28;20032;-69
2021/05/14 03:29:52;;;;;;;3.15;2.05;;;;;;;6.61;78.82;98710.50;5069229;28;20033;-69
2021/05/14 03:32:18;;;;;;;3.42;2.40;;;;;;;6.58;78.54;98705.41;5069625;28;20032;-69
2021/05/14 03:34:43;;;;;;;2.97;2.10;;;;;;;6.58;78.88;98708.03;5069374;28;20115;-67
2021/05/14 03:37:08;;;;;;;2.83;2.15;;;;;;;6.55;78.51;98709.97;5050927;28;20040;-69
2021/05/14 03:39:44;;;;;;;4.63;2.28;;;;;;;6.54;78.51;98716.13;5069328;28;20053;-69
2021/05/14 03:42:18;;;;;;;9.93;2.58;;;;;;;6.54;79.13;98708.25;5069166;28;20039;-69
2021/05/14 03:44:44;;;;;;;3.70;2.58;;;;;;;6.53;79.35;98717.06;5069077;28;20028;-70
2021/05/14 03:47:10;;;;;;;4.97;2.95;;;;;;;6.53;79.41;98712.66;5071268;28;20399;-70
2021/05/14 03:49:37;;;;;;;7.10;2.45;;;;;;;6.54;78.99;98710.88;5069054;28;20111;-70
2021/05/14 03:52:10;;;;;;;4.13;2.88;;;;;;;6.56;78.85;98709.88;5069457;28;20640;-69
2021/05/14 03:54:37;;;;;;;2.70;2.20;;;;;;;6.56;79.00;98701.19;5068953;28;20028;-70
2021/05/14 03:57:03;;;;;;;4.57;2.95;;;;;;;6.56;78.59;98709.88;5068367;28;20436;-69
2021/05/14 03:59:29;;;;;;;3.67;2.55;;;;;;;6.55;78.98;98704.75;5068878;28;20115;-69
2021/05/14 04:01:54;;;;;;;3.17;2.10;;;;;;;6.57;79.12;98703.72;5068930;28;20268;-70
2021/05/14 04:04:22;;;;;;;3.67;2.17;;;;;;;6.61;79.54;98707.03;5068975;28;20047;-70
2021/05/14 04:06:47;;;;;;;5.32;2.40;;;;;;;6.63;79.19;98708.66;5068487;28;20064;-70
2021/05/14 04:09:12;;;;;;;3.92;2.00;;;;;;;6.69;79.27;98711.88;5068927;28;20067;-69
2021/05/14 04:16:47;;;;;;;3.05;2.75;;;;;;;6.80;79.59;98712.19;5069449;28;20047;-72
2021/05/14 04:19:13;;;;;;;3.83;2.70;;;;;;;6.84;79.31;98708.47;5068927;28;20036;-70
2021/05/14 04:21:38;;;;;;;5.97;2.70;;;;;;;6.88;80.44;98712.63;5067722;28;20036;-70
2021/05/14 04:24:05;;;;;;;3.03;2.53;;;;;;;6.93;79.76;98712.41;5068694;28;20032;-71
2021/05/14 04:26:30;;;;;;;5.68;2.30;;;;;;;7.03;79.63;98717.09;5068345;28;20032;-70
2021/05/14 04:28:56;;;;;;;6.50;2.13;;;;;;;7.13;79.60;98716.59;5068445;28;20396;-69
2021/05/14 04:31:21;;;;;;;7.18;2.20;;;;;;;7.20;79.48;98708.34;5068872;28;20120;-69
2021/05/14 04:33:46;;;;;;;4.68;2.20;;;;;;;7.25;79.44;98713.34;5068069;28;20057;-68
2021/05/14 04:36:12;;;;;;;2.92;2.35;;;;;;;7.31;79.43;98716.50;5067319;28;20032;-70
2021/05/14 04:38:37;;;;;;;4.35;2.58;;;;;;;7.37;79.11;98710.06;5068669;28;20028;-69
2021/05/14 04:41:02;;;;;;;3.35;2.25;;;;;;;7.42;78.98;98709.81;5069040;28;20035;-70
2021/05/14 04:43:28;;;;;;;5.45;2.63;;;;;;;7.46;78.65;98712.22;5071986;28;20456;-71
2021/05/14 04:45:53;;;;;;;3.60;2.80;;;;;;;7.53;78.98;98716.19;5072316;28;20033;-70
2021/05/14 04:48:19;;;;;;;3.92;2.30;;;;;;;7.61;78.99;98715.78;5072400;28;20472;-70
2021/05/14 04:50:44;;;;;;;3.42;2.55;;;;;;;7.72;78.71;98712.56;5072230;28;20115;-71
2021/05/14 04:53:13;;;;;;;2.92;2.05;;;;;;;7.79;78.27;98713.91;5072274;28;20047;-69
2021/05/14 04:55:38;;;;;;;2.85;1.95;;;;;;;7.88;78.07;98721.28;5071722;28;20534;-70
2021/05/14 04:58:04;;;;;;;6.55;2.03;;;;;;;8.00;77.52;98714.50;5071839;28;20044;-70
2021/05/14 05:00:29;;;;;;;2.75;2.10;;;;;;;8.10;77.61;98710.44;5071575;28;20107;-70
2021/05/14 05:02:55;;;;;;;3.25;2.30;;;;;;;8.20;77.21;98713.38;5045340;28;20043;-69
2021/05/14 05:05:21;;;;;;;5.47;2.67;;;;;;;8.25;77.37;98726.25;5072096;28;20059;-70
2021/05/14 05:07:47;;;;;;;5.15;3.00;;;;;;;8.32;78.37;98725.81;5070612;28;20028;-69
2021/05/14 05:10:13;;;;;;;6.35;2.85;;;;;;;8.34;78.16;98718.72;5071760;28;20086;-69
2021/05/14 05:12:39;;;;;;;4.68;2.85;;;;;;;8.40;78.18;98728.03;5071763;28;20024;-70
2021/05/14 05:15:05;;;;;;;4.50;3.13;;;;;;;8.49;78.00;98724.03;5071507;28;20044;-70
2021/05/14 05:17:30;;;;;;;3.60;2.33;;;;;;;8.65;77.20;98731.88;5071654;28;20047;-70
2021/05/14 05:19:55;;;;;;;7.13;2.50;;;;;;;8.78;76.53;98736.31;5071281;28;20033;-70
2021/05/14 05:22:22;;;;;;;5.75;2.50;;;;;;;8.86;76.79;98732.38;5091684;28;20043;-71
2021/05/14 05:24:47;;;;;;;5.15;2.33;;;;;;;8.98;76.50;98736.91;5091460;28;20040;-70
2021/05/14 05:27:13;;;;;;;3.17;2.45;;;;;;;9.10;77.11;98740.59;5091252;28;20097;-72
2021/05/14 05:29:39;;;;;;;5.07;2.22;;;;;;;9.18;76.42;98731.31;5091675;28;20032;-70
2021/05/14 05:32:05;;;;;;;5.30;2.63;;;;;;;9.32;76.26;98730.47;5091558;28;20040;-69
2021/05/14 05:34:30;;;;;;;6.03;2.88;;;;;;;9.39;76.97;98733.56;5091073;28;20032;-70
2021/05/14 05:36:56;;;;;;;6.20;2.40;;;;;;;9.45;76.77;98741.06;5073183;28;20040;-70
2021/05/14 05:39:22;;;;;;;3.28;2.17;;;;;;;9.58;75.88;98738.56;5092224;28;20057;-71
2021/05/14 05:41:47;;;;;;;2.17;1.70;;;;;;;9.71;74.80;98742.09;5072919;28;20040;-70
2021/05/14 05:44:13;;;;;;;4.18;2.50;;;;;;;9.85;74.29;98741.25;5091590;28;20549;-70
2021/05/14 05:46:38;;;;;;;4.25;3.08;;;;;;;9.94;74.59;98738.00;5090938;28;20074;-69
2021/05/14 05:49:04;;;;;;;5.13;2.63;;;;;;;9.99;74.55;98749.13;5091628;28;20039;-70
2021/05/14 05:51:31;;;;;;;4.43;2.55;;;;;;;10.04;73.46;98743.53;5068944;28;20036;-70
2021/05/14 05:53:57;;;;;;;4.15;2.33;;;;;;;10.11;73.78;98739.56;5072162;28;20099;-70
2021/05/14 05:56:24;;;;;;;5.63;3.00;;;;;;;10.21;73.00;98740.66;5054015;28;20457;-70
2021/05/14 05:58:49;;;;;;;4.38;2.28;;;;;;;10.35;72.46;98745.09;5071353;28;20032;-69
2021/05/14 06:01:14;;;;;;;10.65;5.38;;;;;;;10.41;73.11;98749.97;5036063;28;20086;-69
2021/05/14 06:03:40;;;;;;;3.05;2.00;;;;;;;10.44;72.42;98744.50;5070799;28;20082;-69
2021/05/14 06:06:05;;;;;;;8.27;2.35;;;;;;;10.52;73.26;98746.63;5070227;28;20115;-70
2021/05/14 06:08:30;;;;;;;3.80;2.33;;;;;;;10.53;72.02;98743.91;5050830;28;20464;-70
2021/05/14 06:10:56;;;;;;;3.40;2.35;;;;;;;10.53;72.70;98748.31;5070869;28;20044;-69
2021/05/14 06:13:21;;;;;;;2.75;2.05;;;;;;;10.63;71.60;98753.81;5087596;28;20109;-70
2021/05/14 06:15:47;;;;;;;4.53;2.58;;;;;;;10.73;70.56;98746.97;5090643;28;20509;-69
2021/05/14 06:18:13;;;;;;;5.80;2.20;;;;;;;11.08;69.75;98749.91;5088486;28;20043;-71
2021/05/14 06:20:43;;;;;;;7.28;2.33;;;;;;;11.22;69.23;98745.47;5079923;28;20036;-69
2021/05/14 06:23:08;;;;;;;4.50;2.20;;;;;;;11.37;68.17;98750.53;5072724;28;20036;-69
2021/05/14 06:25:34;;;;;;;4.55;2.17;;;;;;;11.42;67.83;98749.38;5090599;28;20395;-70
2021/05/14 06:28:00;;;;;;;3.20;1.88;;;;;;;11.51;68.18;98751.38;5090424;28;20088;-70
2021/05/14 06:30:25;;;;;;;3.95;2.55;;;;;;;11.70;68.46;98751.78;5090579;28;20478;-70
2021/05/14 06:32:50;;;;;;;3.28;2.40;;;;;;;11.96;67.13;98755.25;5090704;28;20036;-70
2021/05/14 06:35:16;;;;;;;2.80;2.00;;;;;;;12.20;66.02;98755.25;5090592;28;20113;-71
2021/05/14 06:37:43;;;;;;;3.33;2.10;;;;;;;12.47;66.61;98751.56;5070500;28;20028;-71
2021/05/14 06:40:09;;;;;;;3.08;2.13;;;;;;;12.66;64.44;98757.19;5069971;28;20041;-71
2021/05/14 06:42:35;;;;;;;3.05;2.13;;;;;;;12.81;63.91;98755.19;5070357;28;20656;-70
2021/05/14 06:45:00;;;;;;;10.18;2.55;;;;;;;13.01;63.46;98758.13;5070674;28;20036;-71
2021/05/14 06:47:26;;;;;;;9.90;2.08;;;;;;;13.23;63.18;98754.69;5086839;28;20032;-70
2021/05/14 06:49:51;;;;;;;6.45;2.22;;;;;;;13.46;62.23;98764.41;5090676;28;20040;-69
2021/05/14 06:52:16;;;;;;;9.35;3.42;;;;;;;13.61;61.67;98769.44;5089656;28;20081;-69
2021/05/14 06:54:42;;;;;;;4.05;2.53;;;;;;;13.85;60.91;98770.16;5089971;28;20036;-70
2021/05/14 06:57:07;;;;;;;2.47;1.98;;;;;;;14.09;60.51;98769.19;5089783;28;20044;-70
2021/05/14 06:59:33;;;;;;;4.18;2.80;;;;;;;14.43;58.51;98763.81;5089713;28;20042;-69
2021/05/14 07:01:58;;;;;;;5.10;2.65;;;;;;;14.78;58.42;98769.75;5089499;28;20054;-69
2021/05/14 07:04:23;;;;;;;8.98;3.28;;;;;;;14.88;57.32;98766.34;5089264;28;20028;-69
2021/05/14 07:06:49;;;;;;;3.42;1.98;;;;;;;14.91;57.14;98766.91;5089228;28;20036;-70
2021/05/14 07:09:14;;;;;;;2.88;1.95;;;;;;;14.85;57.81;98775.38;5089705;28;20032;-69
2021/05/14 07:11:40;;;;;;;4.32;2.00;;;;;;;15.03;56.78;98771.19;5089946;28;20452;-70
2021/05/14 07:14:05;;;;;;;4.50;2.38;;;;;;;15.32;55.76;98764.41;5089581;28;20043;-69
2021/05/14 07:16:31;;;;;;;4.57;2.13;;;;;;;15.81;54.33;98768.16;5078722;28;20040;-71
2021/05/14 07:18:56;;;;;;;2.53;1.67;;;;;;;16.16;53.69;98774.84;5071842;28;20484;-70
2021/05/14 07:21:24;;;;;;;5.18;1.88;;;;;;;16.79;53.08;98762.09;5050713;28;20029;-70
2021/05/14 07:23:50;;;;;;;2.72;1.90;;;;;;;17.30;51.00;98768.91;5037433;28;20037;-70
2021/05/14 07:26:16;;;;;;;4.88;1.90;;;;;;;17.86;49.51;98756.56;5053575;28;20044;-70
2021/05/14 07:28:42;;;;;;;4.70;1.92;;;;;;;18.45;47.65;98759.72;5038469;28;20145;-69
2021/05/14 07:31:07;;;;;;;7.15;2.55;;;;;;;19.03;46.54;98766.50;5049291;28;20491;-71
2021/05/14 07:33:32;;;;;;;2.90;1.90;;;;;;;19.35;45.40;98754.38;5031070;28;20044;-72
2021/05/14 07:35:58;;;;;;;3.35;1.90;;;;;;;19.50;45.29;98755.47;5053727;28;20546;-68
2021/05/14 07:38:23;;;;;;;7.82;2.15;;;;;;;19.61;44.44;98763.19;5069511;28;20520;-69
2021/05/14 07:40:49;;;;;;;2.80;1.98;;;;;;;20.07;43.31;98758.44;5069083;28;20472;-70
2021/05/14 07:43:14;;;;;;;3.30;1.80;;;;;;;20.50;42.63;98753.91;5069035;28;20043;-69
2021/05/14 07:45:40;;;;;;;7.40;1.98;;;;;;;20.82;42.15;98760.31;5058216;28;20563;-71
2021/05/14 07:48:06;;;;;;;5.68;2.25;;;;;;;21.12;40.79;98766.03;5067831;28;20040;-71
2021/05/14 07:50:33;;;;;;;6.43;3.50;;;;;;;21.28;40.08;98760.66;5083509;28;20062;-71
2021/05/14 07:52:58;;;;;;;3.83;1.95;;;;;;;21.34;40.31;98759.13;5089281;28;20111;-71
2021/05/14 07:55:24;;;;;;;4.18;2.05;;;;;;;21.42;39.43;98761.84;5075173;28;20151;-71
2021/05/14 07:57:49;;;;;;;3.20;1.98;;;;;;;21.31;39.69;98772.88;5068393;28;20086;-71
2021/05/14 08:00:15;;;;;;;3.42;1.92;;;;;;;20.68;40.30;98766.34;5068436;28;20400;-72
2021/05/14 08:02:41;;;;;;;3.88;2.05;;;;;;;21.01;39.86;98764.50;5068121;28;20128;-71
2021/05/14 08:05:07;;;;;;;2.80;1.70;;;;;;;21.15;39.93;98765.69;5067385;28;20037;-71
2021/05/14 08:07:32;;;;;;;2.88;1.92;;;;;;;21.62;39.04;98760.44;5083776;28;20038;-71
2021/05/14 08:09:57;;;;;;;4.68;1.98;;;;;;;21.70;39.11;98764.13;5048413;28;20551;-70
2021/05/14 08:12:25;;;;;;;3.58;2.38;;;;;;;21.63;39.78;98762.13;5058589;28;20051;-72
2021/05/14 08:14:51;;;;;;;4.47;2.20;;;;;;;21.67;39.64;98767.16;5089094;28;20115;-71
2021/05/14 08:17:18;;;;;;;2.60;2.05;;;;;;;21.88;38.52;98770.13;5091373;28;20124;-71
2021/05/14 08:19:43;;;;;;;2.38;1.70;;;;;;;21.65;38.88;98765.47;5077240;28;20032;-70
2021/05/14 08:22:08;;;;;;;3.28;1.83;;;;;;;21.60;38.18;98773.19;5072344;28;20135;-70
2021/05/14 08:24:34;;;;;;;2.15;1.67;;;;;;;21.16;38.17;98768.19;5072303;28;20028;-69
2021/05/14 08:26:59;;;;;;;4.63;1.45;;;;;;;20.63;39.01;98768.69;5054125;28;20040;-70
2021/05/14 08:29:25;;;;;;;3.63;1.50;;;;;;;20.57;39.62;98762.94;5072675;28;20032;-70
2021/05/14 08:31:51;;;;;;;3.92;2.05;;;;;;;20.93;39.02;98767.19;5071980;28;20036;-71
2021/05/14 08:34:16;;;;;;;4.40;2.40;;;;;;;20.48;40.17;98763.09;5063842;28;22049;-70
2021/05/14 08:36:42;;;;;;;4.93;2.00;;;;;;;19.97;40.92;98771.13;5090810;28;20115;-70
2021/05/14 08:39:08;;;;;;;5.38;1.80;;;;;;;19.68;41.11;98763.44;5092435;28;20518;-71
2021/05/14 08:41:34;;;;;;;2.15;1.50;;;;;;;19.99;40.70;98765.63;5092254;28;20452;-69
2021/05/14 08:44:00;;;;;;;4.78;2.00;;;;;;;20.01;40.21;98758.25;5091568;28;20048;-69
2021/05/14 08:46:26;;;;;;;4.60;1.73;;;;;;;20.15;40.20;98757.63;5092126;28;20036;-70
2021/05/14 08:48:55;;;;;;;3.30;1.70;;;;;;;20.28;39.25;98765.19;5079018;28;20025;-71
2021/05/14 08:51:30;;;;;;;2.63;1.35;;;;;;;20.63;38.17;98756.13;5053917;28;20498;-71
2021/05/14 08:54:01;;;;;;;21.50;3.00;;;;;;;20.47;37.94;98762.22;5072204;28;20480;-72
2021/05/14 08:56:27;;;;;;;5.13;2.17;;;;;;;20.94;37.44;98756.28;5052885;28;20036;-70
2021/05/14 08:58:52;;;;;;;4.65;1.70;;;;;;;20.94;36.71;98761.66;5071895;28;20035;-72
2021/05/14 09:01:18;;;;;;;3.38;1.77;;;;;;;21.10;36.59;98760.84;5071833;28;20029;-71
2021/05/14 09:03:59;;;;;;;10.13;2.78;;;;;;;21.28;36.69;98770.53;5053688;28;20037;-71
2021/05/14 09:06:35;;;;;;;3.78;1.63;;;;;;;20.88;37.37;98761.50;5071255;28;20102;-68
2021/05/14 09:09:07;;;;;;;6.50;2.40;;;;;;;21.04;37.54;98760.66;5071396;28;20040;-69
2021/05/14 09:11:36;;;;;;;10.05;2.47;;;;;;;20.56;38.16;98763.13;5071795;28;20082;-71
2021/05/14 09:14:02;;;;;;;3.88;1.52;;;;;;;19.89;39.33;98761.22;5071241;28;20693;-69
2021/05/14 09:16:41;;;;;;;3.50;1.50;;;;;;;19.25;40.47;98759.81;5071574;28;20051;-71
2021/05/14 09:19:09;;;;;;;22.58;4.53;;;;;;;18.77;41.94;98761.06;5050887;28;20400;-68
2021/05/14 09:21:34;;;;;;;4.70;1.65;;;;;;;19.49;39.65;98759.97;5049909;28;20477;-71
2021/05/14 09:24:00;;;;;;;37.33;12.63;;;;;;;20.39;38.79;98767.56;5050809;28;20041;-70
2021/05/14 09:26:30;;;;;;;13.80;3.05;;;;;;;19.71;39.69;98761.31;5050823;28;20033;-70
2021/05/14 09:28:56;;;;;;;1.83;1.30;;;;;;;18.78;40.60;98768.09;5051281;28;20462;-70
2021/05/14 09:31:23;;;;;;;3.25;1.23;;;;;;;18.47;41.51;98765.75;5050167;28;20037;-71
2021/05/14 09:34:00;;;;;;;7.25;1.40;;;;;;;18.40;40.64;98770.03;5051319;28;20033;-70
2021/05/14 09:36:25;;;;;;;3.95;2.00;;;;;;;19.50;38.61;98760.81;5054768;28;20025;-70
2021/05/14 09:38:53;;;;;;;5.03;1.23;;;;;;;20.09;37.91;98763.66;5050777;28;20087;-70
2021/05/14 09:41:34;;;;;;;5.32;1.77;;;;;;;19.88;39.97;98756.84;5051571;28;20125;-70
2021/05/14 09:44:07;;;;;;;7.95;2.40;;;;;;;19.20;41.72;98757.59;5050686;28;20518;-69
2021/05/14 09:46:36;;;;;;;3.17;1.90;;;;;;;18.84;41.65;98768.31;5050254;28;20036;-71
2021/05/14 09:49:04;;;;;;;5.93;1.63;;;;;;;18.62;42.70;98761.56;5066327;28;20137;-71
2021/05/14 09:51:32;;;;;;;11.80;2.00;;;;;;;18.37;43.24;98776.50;5070974;28;20127;-69
2021/05/14 09:54:20;;;;;;;7.68;2.20;;;;;;;18.03;42.93;98768.25;5071095;28;20035;-70
2021/05/14 10:00:13;;;;;;;4.45;2.40;;;;;;;18.70;42.54;98763.47;5015222;28;20163;-69
2021/05/14 10:02:40;;;;;;;6.70;2.10;;;;;;;20.56;38.38;98757.78;5070622;28;20465;-71
2021/05/14 10:05:06;;;;;;;5.65;2.85;;;;;;;21.85;35.22;98748.97;5071452;28;20028;-71
2021/05/14 10:07:34;;;;;;;4.80;2.38;;;;;;;22.41;34.24;98752.44;5052881;28;20397;-71
2021/05/14 10:10:02;;;;;;;4.60;1.73;;;;;;;21.53;34.49;98749.91;5071622;28;20039;-70
2021/05/14 10:12:27;;;;;;;2.63;1.55;;;;;;;20.56;36.52;98747.91;5072788;28;20115;-70
2021/05/14 10:14:56;;;;;;;4.25;1.80;;;;;;;20.36;36.32;98757.22;5072644;28;20143;-69
2021/05/14 10:17:22;;;;;;;2.15;1.60;;;;;;;19.93;36.82;98757.19;5071455;28;20033;-70
2021/05/14 10:19:48;;;;;;;1.70;1.15;;;;;;;19.60;38.05;98748.16;5073589;28;20078;-71
2021/05/14 10:22:15;;;;;;;3.55;1.80;;;;;;;20.06;37.52;98754.09;5072719;28;20036;-71
2021/05/14 10:24:53;;;;;;;3.35;2.25;;;;;;;20.18;38.30;98749.28;5054102;28;20445;-71
2021/05/14 10:27:27;;;;;;;3.63;1.85;;;;;;;20.02;38.98;98744.72;5072365;28;20116;-71
2021/05/14 10:29:54;;;;;;;2.25;1.35;;;;;;;19.28;39.83;98738.13;5076366;28;20035;-71
2021/05/14 10:32:45;;;;;;;6.25;1.73;;;;;;;18.88;41.28;98737.66;5076003;28;20043;-71
2021/05/14 10:35:15;;;;;;;11.05;4.10;;;;;;;18.59;40.80;98747.69;5071623;28;20040;-71
2021/05/14 10:37:48;;;;;;;2.65;1.60;;;;;;;18.40;40.92;98748.66;5070948;28;20028;-70
2021/05/14 10:40:34;;;;;;;40.83;5.25;;;;;;;18.21;38.96;98746.97;5069668;28;20066;-70
2021/05/14 10:43:00;;;;;;;;;;;;;;;18.08;38.73;98749.16;5058916;28;20036;-72
2021/05/14 10:45:59;;;;;;;6.50;3.13;;;;;;;18.12;39.76;98742.53;5070158;28;20324;-69
2021/05/14 10:48:25;;;;;;;11.63;2.75;;;;;;;18.38;39.51;98742.63;5070271;28;20039;-70
2021/05/14 10:50:57;;;;;;;3.80;1.40;;;;;;;18.79;37.27;98748.41;5070663;28;20041;-71
2021/05/14 10:53:45;;;;;;;3.80;1.10;;;;;;;18.64;36.33;98737.41;5070363;28;20372;-70
2021/05/14 10:56:11;;;;;;;2.17;1.60;;;;;;;19.33;36.74;98726.97;5069643;28;20052;-70
2021/05/14 10:58:47;;;;;;;3.97;1.63;;;;;;;19.44;36.66;98732.88;5070513;28;20064;-70
2021/05/14 11:01:32;;;;;;;3.17;1.45;;;;;;;19.15;35.13;98725.16;5070211;28;20132;-70
2021/05/14 11:04:00;;;;;;;1.30;1.08;;;;;;;18.78;37.32;98728.03;5070030;28;20063;-69
2021/05/14 11:06:26;;;;;;;4.30;1.00;;;;;;;18.60;38.04;98728.00;5069619;28;20423;-68
2021/05/14 11:09:18;;;;;;;3.63;1.52;;;;;;;18.36;39.44;98725.94;5068880;28;20044;-68
2021/05/14 11:12:05;;;;;;;3.08;1.70;;;;;;;18.10;39.99;98729.34;5067444;28;20490;-70
2021/05/14 11:14:57;;;;;;;3.67;2.00;;;;;;;18.48;39.61;98722.06;5069087;28;20100;-70
2021/05/14 11:17:22;;;;;;;3.75;1.50;;;;;;;19.08;38.67;98732.13;5069132;28;20111;-71
2021/05/14 11:19:52;;;;;;;3.00;1.95;;;;;;;18.87;39.23;98716.44;5053096;28;20492;-70
2021/05/14 11:22:24;;;;;;;2.47;1.38;;;;;;;18.49;39.42;98718.41;5048975;28;20043;-70
2021/05/14 11:24:59;;;;;;;1.73;1.10;;;;;;;18.53;39.10;98717.09;5031479;28;20045;-70
2021/05/14 11:27:30;;;;;;;1.15;1.00;;;;;;;18.87;38.74;98716.44;5048781;28;20037;-70
2021/05/14 11:30:00;;;;;;;4.78;1.67;;;;;;;18.61;39.56;98713.69;5049579;28;20044;-70
2021/05/14 11:32:28;;;;;;;2.55;1.50;;;;;;;18.41;40.35;98712.97;5050316;28;20090;-70
2021/05/14 11:35:12;;;;;;;12.05;1.85;;;;;;;18.42;40.13;98715.50;5089273;28;20020;-70
2021/05/14 11:37:53;;;;;;;1.50;1.17;;;;;;;18.48;40.45;98718.56;5089233;28;20107;-70
2021/05/14 11:40:19;;;;;;;2.22;1.20;;;;;;;18.41;39.62;98720.97;5089403;28;20043;-70
2021/05/14 11:42:47;;;;;;;3.42;1.48;;;;;;;18.34;40.29;98715.44;5088968;28;20064;-70
2021/05/14 11:45:19;;;;;;;4.47;1.50;;;;;;;18.37;40.37;98724.97;5089533;28;20032;-70